Burnside, PA (15721)

5:24 AM EDT on September 04, 2015 (GMT -0400)
NE Indiana County Pa. | | Change Station
CLOSE
Current Station
Personal Weather Station
Location: Cherry Tree, PA
Elevation: 1601 ft
Nearby Weather Stations

Elev 1601 ft 40.78 °N, 78.81 °W | Updated 31 seconds ago

Clear
Clear
62.6 °F
Feels Like 62.6 °F
N
0.0
Wind Variable Wind from ESE
Gusts 0.0 mph

Today
High -- | Low -- °F
--% Chance of Precip.
Yesterday
High -- | Low -- °F
Precip. -- in
6:44 AM 7:43 PM
Waning Gibbous, 61% visible
Pressure 30.06 in
Visibility 1.8 miles
Clouds Scattered Clouds 100 ft
Scattered Clouds 3900 ft
Dew Point 62 °F
Humidity 97%
Rainfall 0.00 in
Snow Depth Not available.
UV 0 out of 12
Pollen 10.00 out of 12
Air Quality Not available.
Flu Activity Not available.
METAR KIDI 040915Z AUTO 12004KT 1 3/4SM BR SCT001 SCT039 19/19 A3006 RMK A01
Pressure 30.06 in
Visibility 1.8 miles
Clouds Scattered Clouds 100 ft
Scattered Clouds 3900 ft
Dew Point 62 °F
Humidity 97%
Rainfall 0.00 in
Snow Depth Not available.
UV 0 out of 12
Pollen 10.00 out of 12
Air Quality Not available.
Flu Activity Not available.
METAR KIDI 040915Z AUTO 12004KT 1 3/4SM BR SCT001 SCT039 19/19 A3006 RMK A01

10-Day Weather Forecast

×

Almanac

Astronomy

Sep. 04, 2015 Rise Set
Actual Time
Civil Twilight
Nautical Twilight
Astronomical Twilight
Moon
Length of Visible Light
Length of Day
Tomorrow will be .
, % of the Moon is Illuminated

Today's Extremes

State Highs State Lows

Community

WunderPhotos

Upload Photos

1,852,142 photos uploaded!

WunderBlogs® & News

Nearby

Air Quality

  Air Quality AQ Index Pollutant
Not available.

Snow Depth

Station Depth Elevation

Earthquake Activity

City Distance Mag. Time & Date
Minimum magnitude displayed is 2.5.

Coastal Water Temperatures

Place Temperature

Stations

Nearby Weather Stations

Station Location Temp. Windchill Dew Point Humidity Wind Precip. Elev Updated Type